createdAt,value
2023-05-24T00:00:34.426Z,98393.54
2023-05-24T00:03:34.840Z,98395.20
2023-05-24T00:06:28.044Z,98394.23
2023-05-24T00:09:20.082Z,98393.95
2023-05-24T00:12:12.345Z,98396.91
2023-05-24T00:15:04.918Z,98393.06
2023-05-24T00:17:57.004Z,98394.91
2023-05-24T00:20:49.229Z,98396.50
2023-05-24T00:23:42.047Z,98396.63
2023-05-24T00:26:34.142Z,98400.20
2023-05-24T00:29:26.130Z,98402.02
2023-05-24T00:32:18.279Z,98400.71
2023-05-24T00:35:11.030Z,98398.15
2023-05-24T00:38:03.037Z,98400.80
2023-05-24T00:40:56.345Z,98403.63
2023-05-24T00:43:48.471Z,98407.27
2023-05-24T00:46:33.415Z,98405.31
2023-05-24T00:49:26.454Z,98406.48
2023-05-24T00:52:19.348Z,98403.76
2023-05-24T00:55:12.584Z,98403.19
2023-05-24T00:58:05.032Z,98403.92
2023-05-24T01:01:00.232Z,98404.27
2023-05-24T01:03:52.740Z,98402.96
2023-05-24T01:07:18.156Z,98407.28
2023-05-24T01:10:19.484Z,98411.80
2023-05-24T01:13:32.040Z,98409.20
2023-05-24T01:16:17.998Z,98414.20
2023-05-24T01:19:30.809Z,98416.99
2023-05-24T01:22:47.892Z,98416.00
2023-05-24T01:26:19.681Z,98418.60
2023-05-24T01:29:14.393Z,98423.33
2023-05-24T01:32:14.971Z,98422.50
2023-05-24T01:34:57.241Z,98422.91
2023-05-24T01:37:49.364Z,98422.89
2023-05-24T01:40:43.389Z,98422.67
2023-05-24T01:43:37.179Z,98422.10
2023-05-24T01:46:40.820Z,98424.91
2023-05-24T01:49:23.369Z,98427.95
2023-05-24T01:52:29.514Z,98426.67
2023-05-24T01:55:21.832Z,98434.94
2023-05-24T01:58:17.382Z,98438.46
2023-05-24T02:01:10.142Z,98450.59
2023-05-24T02:03:47.265Z,98450.83
2023-05-24T02:06:39.233Z,98452.77
2023-05-24T02:09:31.260Z,98455.96
2023-05-24T02:12:23.388Z,98454.80
2023-05-24T02:15:15.671Z,98457.06
2023-05-24T02:18:08.806Z,98458.02
2023-05-24T02:21:00.909Z,98461.98
2023-05-24T02:23:52.949Z,98463.30
2023-05-24T02:26:45.253Z,98464.67
2023-05-24T02:29:37.274Z,98466.13
2023-05-24T02:32:29.413Z,98468.48
2023-05-24T02:35:21.745Z,98469.39
2023-05-24T02:38:13.765Z,98468.73
2023-05-24T02:41:06.139Z,98470.14
2023-05-24T02:43:58.169Z,98467.11
2023-05-24T02:46:50.172Z,98468.94
2023-05-24T02:49:43.358Z,98471.45
2023-05-24T02:52:36.295Z,98472.52
2023-05-24T02:55:29.179Z,98474.42
2023-05-24T02:58:21.290Z,98476.71
2023-05-24T03:01:13.420Z,98478.16
2023-05-24T03:04:05.487Z,98480.98
2023-05-24T03:06:57.592Z,98483.73
2023-05-24T03:09:49.638Z,98485.24
2023-05-24T03:12:41.621Z,98483.50
2023-05-24T03:15:14.324Z,98481.84
2023-05-24T03:18:06.597Z,98481.67
2023-05-24T03:20:58.698Z,98486.30
2023-05-24T03:23:51.001Z,98485.02
2023-05-24T03:26:43.154Z,98485.86
2023-05-24T03:29:35.226Z,98487.27
2023-05-24T03:32:27.315Z,98488.66
2023-05-24T03:35:19.531Z,98486.31
2023-05-24T03:38:11.734Z,98486.03
2023-05-24T03:41:03.802Z,98489.17
2023-05-24T03:43:55.875Z,98488.16
2023-05-24T03:46:47.927Z,98490.11
2023-05-24T03:49:39.995Z,98485.36
2023-05-24T03:52:32.237Z,98486.81
2023-05-24T03:55:24.268Z,98485.60
2023-05-24T03:58:16.323Z,98486.02
2023-05-24T04:01:09.297Z,98490.09
2023-05-24T04:04:01.680Z,98494.23
2023-05-24T04:06:56.181Z,98495.92
2023-05-24T04:09:48.326Z,98497.54
2023-05-24T04:12:41.909Z,98505.70
2023-05-24T04:15:34.016Z,98507.22
2023-05-24T04:18:26.118Z,98510.23
2023-05-24T04:21:18.282Z,98514.33
2023-05-24T04:24:10.471Z,98514.79
2023-05-24T04:27:02.868Z,98517.47
2023-05-24T04:29:55.916Z,98522.81
2023-05-24T04:32:48.619Z,98524.67
2023-05-24T04:35:40.798Z,98533.78
2023-05-24T04:38:34.599Z,98539.86
2023-05-24T04:41:27.202Z,98538.75
2023-05-24T04:44:19.263Z,98539.87
2023-05-24T04:47:12.739Z,98545.27
2023-05-24T04:50:05.265Z,98547.58
2023-05-24T04:52:57.720Z,98557.04
2023-05-24T04:55:50.794Z,98561.92
2023-05-24T04:58:42.791Z,98564.14
2023-05-24T05:01:35.018Z,98569.36
2023-05-24T05:04:27.030Z,98571.30
2023-05-24T05:07:19.203Z,98580.94
2023-05-24T05:10:12.348Z,98587.84
2023-05-24T05:12:54.478Z,98589.92
2023-05-24T05:15:46.527Z,98598.27
2023-05-24T05:18:38.602Z,98606.39
2023-05-24T05:21:30.655Z,98609.02
2023-05-24T05:24:22.918Z,98609.81
2023-05-24T05:27:14.977Z,98618.47
2023-05-24T05:30:08.789Z,98621.63
2023-05-24T05:33:00.949Z,98623.52
2023-05-24T05:35:54.930Z,98620.14
2023-05-24T05:38:47.573Z,98622.08
2023-05-24T05:41:45.749Z,98630.45
2023-05-24T05:44:38.196Z,98636.66
2023-05-24T05:47:30.319Z,98638.68
2023-05-24T05:50:22.311Z,98646.17
2023-05-24T05:53:14.367Z,98647.69
2023-05-24T05:56:07.276Z,98651.06
2023-05-24T05:58:59.284Z,98658.17
2023-05-24T06:01:51.428Z,98660.09
2023-05-24T06:04:43.473Z,98668.58
2023-05-24T06:07:35.793Z,98669.78
2023-05-24T06:10:27.853Z,98673.39
2023-05-24T06:13:20.057Z,98673.80
2023-05-24T06:16:12.253Z,98678.13
2023-05-24T06:19:06.565Z,98685.76
2023-05-24T06:21:58.877Z,98689.38
2023-05-24T06:24:42.207Z,98690.99
2023-05-24T06:27:34.362Z,98692.73
2023-05-24T06:30:27.213Z,98701.10
2023-05-24T06:33:02.424Z,98705.89
2023-05-24T06:35:54.788Z,98713.05
2023-05-24T06:38:36.415Z,98716.48
2023-05-24T06:41:18.406Z,98721.17
2023-05-24T06:44:10.657Z,98721.33
2023-05-24T06:46:50.055Z,98727.83
2023-05-24T06:49:42.603Z,98728.79
2023-05-24T06:52:14.487Z,98729.42
2023-05-24T06:54:46.398Z,98727.23
2023-05-24T06:57:38.464Z,98734.83
2023-05-24T07:00:12.623Z,98737.27
2023-05-24T07:03:04.973Z,98744.23
2023-05-24T07:05:57.072Z,98742.34
2023-05-24T07:08:49.501Z,98744.49
2023-05-24T07:11:41.739Z,98750.88
2023-05-24T07:14:33.941Z,98756.16
2023-05-24T07:17:26.379Z,98758.99
2023-05-24T07:20:02.701Z,98760.96
2023-05-24T07:22:55.642Z,98764.80
2023-05-24T07:25:31.448Z,98768.05
2023-05-24T07:28:23.797Z,98768.19
2023-05-24T07:31:16.369Z,98772.02
2023-05-24T07:33:50.811Z,98775.86
2023-05-24T07:36:42.889Z,98779.31
2023-05-24T07:39:34.980Z,98787.30
2023-05-24T07:42:27.064Z,98785.66
2023-05-24T07:45:19.384Z,98790.82
2023-05-24T07:48:13.246Z,98796.09
2023-05-24T07:51:06.171Z,98797.56
2023-05-24T07:53:39.021Z,98797.05
2023-05-24T07:56:12.081Z,98798.64
2023-05-24T07:59:04.790Z,98800.02
2023-05-24T08:02:01.468Z,98800.85
2023-05-24T08:04:53.698Z,98808.61
2023-05-24T08:07:45.774Z,98811.73
2023-05-24T08:10:38.576Z,98812.56
2023-05-24T08:13:30.757Z,98810.92
2023-05-24T08:16:23.811Z,98810.67
2023-05-24T08:19:15.871Z,98817.53
2023-05-24T08:22:08.078Z,98822.79
2023-05-24T08:24:42.548Z,98821.00
2023-05-24T08:27:34.855Z,98825.07
2023-05-24T08:30:26.904Z,98836.66
2023-05-24T08:33:19.460Z,98841.11
2023-05-24T08:36:12.592Z,98846.14
2023-05-24T08:39:05.029Z,98848.70
2023-05-24T08:42:08.487Z,98847.94
2023-05-24T08:45:04.690Z,98855.95
2023-05-24T08:47:47.916Z,98863.11
2023-05-24T08:50:40.119Z,98871.24
2023-05-24T08:53:33.562Z,98876.27
2023-05-24T08:56:26.857Z,98877.88
2023-05-24T08:59:19.070Z,98880.00
2023-05-24T09:02:12.683Z,98883.83
2023-05-24T09:05:05.672Z,98885.80
2023-05-24T09:08:01.180Z,98888.27
2023-05-24T09:10:55.757Z,98888.38
2023-05-24T09:13:49.171Z,98892.83
2023-05-24T09:16:41.693Z,98898.23
2023-05-24T09:19:33.833Z,98902.20
2023-05-24T09:22:28.898Z,98902.17
2023-05-24T09:25:21.697Z,98905.88
2023-05-24T09:28:16.465Z,98912.48
2023-05-24T09:31:08.701Z,98912.71
2023-05-24T09:34:01.079Z,98919.10
2023-05-24T09:36:55.101Z,98921.28
2023-05-24T09:39:26.934Z,98929.17
2023-05-24T09:42:21.272Z,98931.84
2023-05-24T09:45:13.908Z,98933.55
2023-05-24T09:48:11.500Z,98937.19
2023-05-24T09:51:07.502Z,98939.52
2023-05-24T09:54:02.228Z,98937.08
2023-05-24T09:56:54.380Z,98935.27
2023-05-24T09:59:47.378Z,98932.13
2023-05-24T10:02:51.478Z,98932.29
2023-05-24T10:05:48.295Z,98937.19
2023-05-24T10:08:41.900Z,98934.58
2023-05-24T10:11:36.921Z,98932.46
2023-05-24T10:14:30.628Z,98931.30
2023-05-24T10:17:22.713Z,98939.27
2023-05-24T10:20:15.536Z,98945.59
2023-05-24T10:22:54.678Z,98948.23
2023-05-24T10:25:30.837Z,98944.73
2023-05-24T10:28:23.731Z,98951.55
2023-05-24T10:31:19.208Z,98950.49
2023-05-24T10:34:12.616Z,98959.67
2023-05-24T10:37:04.913Z,98961.46
2023-05-24T10:39:54.284Z,98961.87
2023-05-24T10:42:47.194Z,98964.00
2023-05-24T10:45:42.166Z,98965.91
2023-05-24T10:48:38.525Z,98967.60
2023-05-24T10:51:40.554Z,98971.14
2023-05-24T10:54:32.680Z,98967.45
2023-05-24T10:57:28.566Z,98971.16
2023-05-24T11:00:48.329Z,98971.71
2023-05-24T11:03:43.448Z,98971.79
2023-05-24T11:06:56.924Z,98970.75
2023-05-24T11:09:46.659Z,98970.58
2023-05-24T11:12:42.129Z,98972.64
2023-05-24T11:15:34.694Z,98967.98
2023-05-24T11:18:27.716Z,98970.73
2023-05-24T11:21:20.732Z,98973.12
2023-05-24T11:24:13.035Z,98967.34
2023-05-24T11:27:06.207Z,98960.87
2023-05-24T11:30:02.163Z,98957.07
2023-05-24T11:32:55.028Z,98957.66
2023-05-24T11:35:47.997Z,98960.08
2023-05-24T11:38:41.236Z,98958.37
2023-05-24T11:41:37.011Z,98960.75
2023-05-24T11:44:31.476Z,98959.31
2023-05-24T11:47:24.279Z,98958.94
2023-05-24T11:50:26.670Z,98958.43
2023-05-24T11:53:21.648Z,98958.25
2023-05-24T11:56:13.979Z,98963.69
2023-05-24T11:59:15.273Z,98961.69
2023-05-24T12:02:08.860Z,98963.02
2023-05-24T12:05:11.897Z,98964.04
2023-05-24T12:08:07.677Z,98960.11
2023-05-24T12:11:02.983Z,98959.34
2023-05-24T12:13:54.966Z,98962.10
2023-05-24T12:16:48.019Z,98957.63
2023-05-24T12:19:40.046Z,98953.58
2023-05-24T12:22:32.572Z,98960.27
2023-05-24T12:25:27.131Z,98961.13
2023-05-24T12:28:24.701Z,98959.52
2023-05-24T12:31:17.052Z,98960.75
2023-05-24T12:34:13.032Z,98956.34
2023-05-24T12:37:05.263Z,98957.23
2023-05-24T12:39:57.618Z,98959.72
2023-05-24T12:42:54.616Z,98959.33
2023-05-24T12:45:46.734Z,98961.20
2023-05-24T12:48:38.808Z,98963.58
2023-05-24T12:51:30.931Z,98960.16
2023-05-24T12:54:25.970Z,98962.70
2023-05-24T12:57:18.122Z,98963.34
2023-05-24T13:00:13.125Z,98964.12
2023-05-24T13:03:05.518Z,98959.80
2023-05-24T13:05:59.391Z,98960.58
2023-05-24T13:08:52.302Z,98964.39
2023-05-24T13:11:44.349Z,98963.42
2023-05-24T13:14:37.583Z,98968.09
2023-05-24T13:17:29.603Z,98965.41
2023-05-24T13:20:24.129Z,98966.60
2023-05-24T13:23:16.532Z,98965.48
2023-05-24T13:26:08.943Z,98964.85
2023-05-24T13:31:56.521Z,98962.14
2023-05-24T13:34:48.819Z,98955.40
2023-05-24T13:37:40.950Z,98958.82
2023-05-24T13:40:33.176Z,98965.50
2023-05-24T13:43:25.368Z,98962.61
2023-05-24T13:46:17.670Z,98966.05
2023-05-24T13:49:11.147Z,98967.83
2023-05-24T13:52:03.778Z,98966.44
2023-05-24T13:54:55.964Z,98966.32
2023-05-24T13:57:51.695Z,98969.59
2023-05-24T14:00:44.521Z,98967.59
2023-05-24T14:03:37.229Z,98962.76
2023-05-24T14:06:14.292Z,98962.77
2023-05-24T14:09:08.262Z,98963.08
2023-05-24T14:11:52.456Z,98962.89
2023-05-24T14:17:41.321Z,98958.25
2023-05-24T14:20:33.534Z,98956.70
2023-05-24T14:23:25.811Z,98955.02
2023-05-24T14:26:19.815Z,98959.75
2023-05-24T14:29:12.031Z,98961.12
2023-05-24T14:32:04.059Z,98953.84
2023-05-24T14:34:56.158Z,98955.83
2023-05-24T14:37:28.079Z,98956.67
2023-05-24T14:40:20.552Z,98956.98
2023-05-24T14:43:12.756Z,98958.43
2023-05-24T14:46:04.981Z,98952.11
2023-05-24T14:48:57.083Z,98951.84
2023-05-24T14:51:50.240Z,98958.80
2023-05-24T14:54:42.705Z,98960.98
2023-05-24T14:57:34.831Z,98954.82
2023-05-24T15:00:28.586Z,98957.27
2023-05-24T15:03:20.858Z,98957.71
2023-05-24T15:06:13.700Z,98955.24
2023-05-24T15:08:56.241Z,98955.34
2023-05-24T15:11:48.268Z,98961.60
2023-05-24T15:14:40.358Z,98961.07
2023-05-24T15:17:32.495Z,98962.30
2023-05-24T15:20:26.074Z,98969.05
2023-05-24T15:23:20.001Z,98969.30
2023-05-24T15:26:13.363Z,98970.71
2023-05-24T15:29:05.426Z,98974.00
2023-05-24T15:31:58.590Z,98979.30
2023-05-24T15:34:51.302Z,98981.04
2023-05-24T15:37:43.632Z,98980.20
2023-05-24T15:40:35.687Z,98983.55
2023-05-24T15:43:27.718Z,98990.08
2023-05-24T15:46:21.753Z,98995.39
2023-05-24T15:49:13.915Z,98998.14
2023-05-24T15:52:06.768Z,99002.31
2023-05-24T15:54:59.136Z,99010.11
2023-05-24T15:57:51.340Z,99003.11
2023-05-24T16:00:43.835Z,99007.80
2023-05-24T16:03:37.984Z,99008.50
2023-05-24T16:06:30.452Z,99006.45
2023-05-24T16:09:22.586Z,99002.64
2023-05-24T16:12:14.557Z,99001.95
2023-05-24T16:15:07.691Z,98996.67
2023-05-24T16:18:00.076Z,98997.86
2023-05-24T16:20:52.964Z,99002.45
2023-05-24T16:23:45.487Z,99011.50
2023-05-24T16:26:37.766Z,99007.19
2023-05-24T16:29:30.252Z,99007.30
2023-05-24T16:32:22.744Z,99011.02
2023-05-24T16:35:15.126Z,99015.89
2023-05-24T16:38:07.212Z,99017.34
2023-05-24T16:40:59.657Z,99017.64
2023-05-24T16:43:51.972Z,99019.70
2023-05-24T16:46:44.418Z,99022.30
2023-05-24T16:49:36.668Z,99030.66
2023-05-24T16:52:28.966Z,99037.67
2023-05-24T16:55:22.317Z,99039.94
2023-05-24T16:57:59.858Z,99044.06
2023-05-24T17:00:54.236Z,99044.66
2023-05-24T17:03:46.837Z,99045.82
2023-05-24T17:06:39.333Z,99051.32
2023-05-24T17:09:31.724Z,99055.13
2023-05-24T17:12:23.788Z,99062.88
2023-05-24T17:15:15.918Z,99065.42
2023-05-24T17:18:08.692Z,99062.79
2023-05-24T17:25:23.226Z,99072.09
2023-05-24T17:28:15.670Z,99073.02
2023-05-24T17:31:10.164Z,99076.42
2023-05-24T17:34:03.209Z,99077.77
2023-05-24T17:36:55.519Z,99077.16
2023-05-24T17:39:52.184Z,99080.27
2023-05-24T17:42:44.269Z,99081.27
2023-05-24T17:45:36.797Z,99080.13
2023-05-24T17:48:12.127Z,99077.12
2023-05-24T17:51:06.854Z,99081.86
2023-05-24T17:53:43.234Z,99086.45
2023-05-24T17:56:35.653Z,99087.70
2023-05-24T17:59:28.678Z,99091.54
2023-05-24T18:02:21.224Z,99088.92
2023-05-24T18:05:13.684Z,99091.31
2023-05-24T18:08:09.580Z,99096.30
2023-05-24T18:10:47.647Z,99098.14
2023-05-24T18:13:41.754Z,99103.95
2023-05-24T18:16:35.319Z,99106.27
2023-05-24T18:19:27.381Z,99110.74
2023-05-24T18:22:21.133Z,99115.77
2023-05-24T18:25:13.692Z,99118.14
2023-05-24T18:28:06.012Z,99117.20
2023-05-24T18:30:59.963Z,99120.08
2023-05-24T18:33:35.902Z,99124.00
2023-05-24T18:36:28.145Z,99128.60
2023-05-24T18:39:00.971Z,99132.52
2023-05-24T18:41:53.942Z,99137.70
2023-05-24T18:44:46.967Z,99135.54
2023-05-24T18:47:24.401Z,99145.80
2023-05-24T18:50:07.957Z,99150.83
2023-05-24T18:52:59.948Z,99152.20
2023-05-24T18:55:52.282Z,99146.66
2023-05-24T18:58:46.109Z,99149.90
2023-05-24T19:01:39.254Z,99152.95
2023-05-24T19:04:31.717Z,99153.74
2023-05-24T19:07:24.028Z,99153.55
2023-05-24T19:10:17.610Z,99154.09
2023-05-24T19:13:11.816Z,99160.01
2023-05-24T19:16:04.252Z,99165.50
2023-05-24T19:18:56.444Z,99164.81
2023-05-24T19:21:50.790Z,99166.10
2023-05-24T19:24:26.452Z,99167.73
2023-05-24T19:27:18.817Z,99178.48
2023-05-24T19:29:51.140Z,99183.11
2023-05-24T19:32:43.283Z,99187.64
2023-05-24T19:35:36.668Z,99194.52
2023-05-24T19:38:29.908Z,99185.17
2023-05-24T19:41:23.099Z,99183.77
2023-05-24T19:44:15.140Z,99186.41
2023-05-24T19:46:56.315Z,99182.98
2023-05-24T19:49:48.389Z,99183.96
2023-05-24T19:52:41.611Z,99183.30
2023-05-24T19:55:36.474Z,99189.84
2023-05-24T19:58:18.631Z,99183.89
2023-05-24T20:00:53.715Z,99181.52
2023-05-24T20:03:48.684Z,99178.73
2023-05-24T20:06:41.168Z,99181.13
2023-05-24T20:09:33.199Z,99186.06
2023-05-24T20:12:08.776Z,99177.34
2023-05-24T20:15:01.248Z,99175.91
2023-05-24T20:17:53.820Z,99174.48
2023-05-24T20:20:45.831Z,99172.11
2023-05-24T20:23:38.142Z,99171.73
2023-05-24T20:26:33.077Z,99168.52
2023-05-24T20:29:26.103Z,99172.77
2023-05-24T20:32:18.709Z,99177.20
2023-05-24T20:35:12.105Z,99182.73
2023-05-24T20:38:04.403Z,99180.06
2023-05-24T20:40:56.426Z,99180.04
2023-05-24T20:43:50.943Z,99175.64
2023-05-24T20:46:43.171Z,99174.27
2023-05-24T20:49:35.993Z,99172.55
2023-05-24T20:52:27.980Z,99171.48
2023-05-24T20:55:20.077Z,99174.59
2023-05-24T20:58:12.260Z,99176.80
2023-05-24T21:01:04.333Z,99174.88
2023-05-24T21:03:56.641Z,99180.23
2023-05-24T21:06:48.841Z,99174.98
2023-05-24T21:09:40.806Z,99174.86
2023-05-24T21:12:33.742Z,99177.15
2023-05-24T21:15:25.954Z,99186.06
2023-05-24T21:18:18.051Z,99184.46
2023-05-24T21:21:10.984Z,99190.21
2023-05-24T21:24:03.518Z,99193.63
2023-05-24T21:26:55.593Z,99196.23
2023-05-24T21:29:48.643Z,99197.56
2023-05-24T21:32:40.888Z,99192.66
2023-05-24T21:35:33.331Z,99193.08
2023-05-24T21:38:25.496Z,99200.69
2023-05-24T21:41:17.528Z,99198.35
2023-05-24T21:44:09.551Z,99202.46
2023-05-24T21:47:01.625Z,99204.27
2023-05-24T21:49:54.845Z,99208.04
2023-05-24T21:52:46.887Z,99207.21
2023-05-24T21:55:38.879Z,99208.39
2023-05-24T21:58:30.940Z,99205.38
2023-05-24T22:01:22.967Z,99205.14
2023-05-24T22:04:15.497Z,99210.76
2023-05-24T22:07:07.764Z,99217.43
2023-05-24T22:09:59.811Z,99219.02
2023-05-24T22:12:51.968Z,99220.89
2023-05-24T22:15:29.209Z,99223.54
2023-05-24T22:18:21.956Z,99224.05
2023-05-24T22:21:14.385Z,99222.67
2023-05-24T22:24:06.552Z,99221.14
2023-05-24T22:27:01.486Z,99224.08
2023-05-24T22:29:53.906Z,99223.75
2023-05-24T22:32:25.836Z,99228.70
2023-05-24T22:35:18.378Z,99234.48
2023-05-24T22:38:10.500Z,99235.05
2023-05-24T22:41:02.563Z,99234.11
2023-05-24T22:43:54.955Z,99232.13
2023-05-24T22:46:48.363Z,99230.77
2023-05-24T22:49:41.192Z,99233.94
2023-05-24T22:52:24.402Z,99233.61
2023-05-24T22:55:16.524Z,99236.66
2023-05-24T22:58:08.703Z,99236.96
2023-05-24T23:01:00.743Z,99233.25
2023-05-24T23:03:52.960Z,99241.96
2023-05-24T23:06:45.633Z,99244.84
2023-05-24T23:09:37.607Z,99245.54
2023-05-24T23:12:29.631Z,99249.55
2023-05-24T23:15:21.757Z,99250.52
2023-05-24T23:18:16.379Z,99253.54
2023-05-24T23:21:10.075Z,99253.58
2023-05-24T23:24:03.823Z,99252.50
2023-05-24T23:26:57.061Z,99259.33
2023-05-24T23:29:49.066Z,99255.95
2023-05-24T23:32:41.123Z,99249.33
2023-05-24T23:35:33.201Z,99251.90
2023-05-24T23:38:25.303Z,99250.36
2023-05-24T23:41:17.285Z,99250.83
2023-05-24T23:44:09.359Z,99251.30
2023-05-24T23:47:02.887Z,99245.08
2023-05-24T23:49:54.952Z,99246.77
2023-05-24T23:52:48.093Z,99248.45
2023-05-24T23:55:40.643Z,99256.30
2023-05-24T23:58:33.550Z,99255.39
